createdAt,value
2019-02-16T00:00:42.787Z,1022.42
2019-02-16T00:01:42.771Z,1022.48
2019-02-16T00:02:42.760Z,1022.45
2019-02-16T00:03:42.750Z,1022.40
2019-02-16T00:04:42.740Z,1022.40
2019-02-16T00:05:42.733Z,1022.46
2019-02-16T00:06:42.730Z,1022.44
2019-02-16T00:07:42.721Z,1022.44
2019-02-16T00:08:42.709Z,1022.42
2019-02-16T00:09:42.699Z,1022.45
2019-02-16T00:10:42.698Z,1022.40
2019-02-16T00:11:42.688Z,1022.42
2019-02-16T00:12:42.681Z,1022.40
2019-02-16T00:13:42.674Z,1022.40
2019-02-16T00:14:42.661Z,1022.39
2019-02-16T00:15:42.654Z,1022.37
2019-02-16T00:16:42.646Z,1022.36
2019-02-16T00:17:42.634Z,1022.40
2019-02-16T00:18:42.632Z,1022.37
2019-02-16T00:19:42.622Z,1022.33
2019-02-16T00:20:42.616Z,1022.39
2019-02-16T00:21:42.610Z,1022.43
2019-02-16T00:22:42.597Z,1022.34
2019-02-16T00:23:42.587Z,1022.37
2019-02-16T00:24:42.584Z,1022.33
2019-02-16T00:25:42.574Z,1022.34
2019-02-16T00:26:42.562Z,1022.37
2019-02-16T00:27:42.552Z,1022.36
2019-02-16T00:28:42.541Z,1022.25
2019-02-16T00:29:42.533Z,1022.33
2019-02-16T00:30:42.530Z,1022.27
2019-02-16T00:31:42.521Z,1022.26
2019-02-16T00:32:42.514Z,1022.26
2019-02-16T00:33:42.507Z,1022.23
2019-02-16T00:34:42.492Z,1022.27
2019-02-16T00:35:42.483Z,1022.24
2019-02-16T00:36:42.480Z,1022.28
2019-02-16T00:37:42.472Z,1022.31
2019-02-16T00:38:42.467Z,1022.30
2019-02-16T00:39:42.459Z,1022.34
2019-02-16T00:40:42.444Z,1022.28
2019-02-16T00:41:42.436Z,1022.26
2019-02-16T00:42:42.432Z,1022.26
2019-02-16T00:43:42.423Z,1022.30
2019-02-16T00:44:42.412Z,1022.22
2019-02-16T00:45:42.405Z,1022.24
2019-02-16T00:46:42.390Z,1022.20
2019-02-16T00:47:42.383Z,1022.23
2019-02-16T00:48:42.377Z,1022.26
2019-02-16T00:49:42.366Z,1022.27
2019-02-16T00:50:42.364Z,1022.24
2019-02-16T00:51:42.353Z,1022.24
2019-02-16T00:52:42.348Z,1022.22
2019-02-16T00:53:42.338Z,1022.23
2019-02-16T00:54:42.326Z,1022.29
2019-02-16T00:55:42.317Z,1022.27
2019-02-16T00:56:42.317Z,1022.25
2019-02-16T00:57:42.305Z,1022.24
2019-02-16T00:58:42.294Z,1022.20
2019-02-16T00:59:42.284Z,1022.25
2019-02-16T01:00:42.272Z,1022.27
2019-02-16T01:01:42.264Z,1022.29
2019-02-16T01:02:42.260Z,1022.23
2019-02-16T01:03:42.250Z,1022.16
2019-02-16T01:04:42.244Z,1022.15
2019-02-16T01:05:42.234Z,1022.18
2019-02-16T01:06:42.222Z,1022.16
2019-02-16T01:07:42.213Z,1022.04
2019-02-16T01:08:42.206Z,1022.05
2019-02-16T01:09:42.198Z,1022.03
2019-02-16T01:10:42.193Z,1022.10
2019-02-16T01:11:42.187Z,1022.06
2019-02-16T01:12:42.173Z,1022.08
2019-02-16T01:13:42.163Z,1022.05
2019-02-16T01:14:42.161Z,1022.04
2019-02-16T01:15:42.150Z,1021.98
2019-02-16T01:16:42.139Z,1022.07
2019-02-16T01:17:42.136Z,1022.05
2019-02-16T01:18:42.120Z,1022.10
2019-02-16T01:19:42.110Z,1022.01
2019-02-16T01:20:42.104Z,1022.06
2019-02-16T01:21:42.093Z,1022.05
2019-02-16T01:22:42.089Z,1022.02
2019-02-16T01:23:42.079Z,1022.08
2019-02-16T01:24:42.077Z,1022.05
2019-02-16T01:25:42.066Z,1022.08
2019-02-16T01:26:42.052Z,1022.00
2019-02-16T01:27:42.044Z,1022.06
2019-02-16T01:28:42.041Z,1021.99
2019-02-16T01:29:42.031Z,1022.08
2019-02-16T01:30:42.030Z,1022.00
2019-02-16T01:31:42.020Z,1021.97
2019-02-16T01:32:42.007Z,1022.00
2019-02-16T01:33:42.000Z,1021.97
2019-02-16T01:34:41.995Z,1021.95
2019-02-16T01:35:41.987Z,1021.98
2019-02-16T01:36:41.979Z,1021.97
2019-02-16T01:37:41.974Z,1021.91
2019-02-16T01:38:41.957Z,1021.88
2019-02-16T01:39:41.950Z,1021.91
2019-02-16T01:40:41.942Z,1021.91
2019-02-16T01:41:41.934Z,1021.85
2019-02-16T01:42:41.930Z,1021.85
2019-02-16T01:43:41.920Z,1021.88
2019-02-16T01:44:41.897Z,1021.88
2019-02-16T01:45:41.901Z,1021.82
2019-02-16T01:46:41.894Z,1021.86
2019-02-16T01:47:41.876Z,1021.84
2019-02-16T01:48:41.868Z,1021.89
2019-02-16T01:49:41.856Z,1021.82
2019-02-16T01:50:41.844Z,1021.85
2019-02-16T01:51:41.836Z,1021.83
2019-02-16T01:52:41.834Z,1021.89
2019-02-16T01:53:41.827Z,1021.83
2019-02-16T01:54:41.884Z,1021.85
2019-02-16T01:55:41.813Z,1021.85
2019-02-16T01:56:41.808Z,1021.80
2019-02-16T01:57:41.799Z,1021.84
2019-02-16T01:58:41.791Z,1021.79
2019-02-16T01:59:41.775Z,1021.82
2019-02-16T02:00:41.771Z,1021.82
2019-02-16T02:01:41.772Z,1021.81
2019-02-16T02:02:41.750Z,1021.89
2019-02-16T02:03:41.742Z,1021.80
2019-02-16T02:04:41.729Z,1021.74
2019-02-16T02:05:41.721Z,1021.77
2019-02-16T02:06:41.721Z,1021.75
2019-02-16T02:07:41.709Z,1021.71
2019-02-16T02:08:41.702Z,1021.70
2019-02-16T02:09:41.691Z,1021.68
2019-02-16T02:10:41.680Z,1021.72
2019-02-16T02:11:41.667Z,1021.65
2019-02-16T02:12:41.662Z,1021.68
2019-02-16T02:13:41.658Z,1021.71
2019-02-16T02:14:41.650Z,1021.69
2019-02-16T02:15:41.642Z,1021.74
2019-02-16T02:16:41.629Z,1021.73
2019-02-16T02:17:41.620Z,1021.70
2019-02-16T02:18:41.615Z,1021.70
2019-02-16T02:19:41.604Z,1021.64
2019-02-16T02:20:41.595Z,1021.68
2019-02-16T02:21:41.656Z,1021.72
2019-02-16T02:22:41.572Z,1021.74
2019-02-16T02:23:41.564Z,1021.70
2019-02-16T02:24:41.558Z,1021.70
2019-02-16T02:25:41.548Z,1021.64
2019-02-16T02:26:41.547Z,1021.67
2019-02-16T02:27:41.535Z,1021.73
2019-02-16T02:28:41.523Z,1021.69
2019-02-16T02:29:41.516Z,1021.75
2019-02-16T02:30:41.503Z,1021.67
2019-02-16T02:31:41.493Z,1021.67
2019-02-16T02:32:41.490Z,1021.69
2019-02-16T02:33:41.484Z,1021.69
2019-02-16T02:34:41.468Z,1021.71
2019-02-16T02:35:41.458Z,1021.70
2019-02-16T02:36:41.451Z,1021.67
2019-02-16T02:37:41.444Z,1021.70
2019-02-16T02:38:41.437Z,1021.76
2019-02-16T02:39:41.430Z,1021.70
2019-02-16T02:40:41.420Z,1021.76
2019-02-16T02:41:41.418Z,1021.76
2019-02-16T02:42:41.400Z,1021.69
2019-02-16T02:43:41.392Z,1021.71
2019-02-16T02:44:41.378Z,1021.72
2019-02-16T02:45:41.370Z,1021.70
2019-02-16T02:46:41.366Z,1021.75
2019-02-16T02:47:41.355Z,1021.69
2019-02-16T02:48:41.341Z,1021.64
2019-02-16T02:49:41.346Z,1021.64
2019-02-16T02:50:41.330Z,1021.65
2019-02-16T02:51:51.523Z,1021.66
2019-02-16T02:52:41.313Z,1021.68
2019-02-16T02:53:41.307Z,1021.71
2019-02-16T02:54:41.293Z,1021.69
2019-02-16T02:55:41.281Z,1021.67
2019-02-16T02:56:41.274Z,1021.67
2019-02-16T02:57:41.269Z,1021.65
2019-02-16T02:58:41.260Z,1021.70
2019-02-16T02:59:41.252Z,1021.73
2019-02-16T03:00:41.240Z,1021.66
2019-02-16T03:01:41.233Z,1021.71
2019-02-16T03:02:41.216Z,1021.68
2019-02-16T03:03:41.207Z,1021.74
2019-02-16T03:04:41.211Z,1021.73
2019-02-16T03:05:41.195Z,1021.68
2019-02-16T03:06:41.181Z,1021.66
2019-02-16T03:07:41.171Z,1021.69
2019-02-16T03:08:41.167Z,1021.71
2019-02-16T03:09:41.157Z,1021.67
2019-02-16T03:10:41.152Z,1021.67
2019-02-16T03:11:41.141Z,1021.63
2019-02-16T03:12:41.135Z,1021.60
2019-02-16T03:13:41.125Z,1021.58
2019-02-16T03:14:41.113Z,1021.60
2019-02-16T03:15:41.101Z,1021.60
2019-02-16T03:16:41.091Z,1021.54
2019-02-16T03:17:41.084Z,1021.56
2019-02-16T03:18:41.078Z,1021.57
2019-02-16T03:19:41.070Z,1021.57
2019-02-16T03:20:41.055Z,1021.53
2019-02-16T03:21:41.045Z,1021.53
2019-02-16T03:22:41.044Z,1021.53
2019-02-16T03:23:41.033Z,1021.50
2019-02-16T03:24:41.035Z,1021.45
2019-02-16T03:25:41.017Z,1021.47
2019-02-16T03:26:41.006Z,1021.49
2019-02-16T03:27:40.994Z,1021.45
2019-02-16T03:28:40.982Z,1021.43
2019-02-16T03:29:40.973Z,1021.43
2019-02-16T03:30:40.975Z,1021.42
2019-02-16T03:31:40.977Z,1021.46
2019-02-16T03:32:40.955Z,1021.38
2019-02-16T03:33:40.964Z,1021.39
2019-02-16T03:34:40.930Z,1021.41
2019-02-16T03:35:40.919Z,1021.55
2019-02-16T03:36:40.916Z,1021.45
2019-02-16T03:37:40.908Z,1021.43
2019-02-16T03:38:40.893Z,1021.49
2019-02-16T03:39:40.891Z,1021.50
2019-02-16T03:40:40.872Z,1021.50
2019-02-16T03:41:40.868Z,1021.50
2019-02-16T03:42:40.867Z,1021.50
2019-02-16T03:43:40.849Z,1021.47
2019-02-16T03:44:40.839Z,1021.45
2019-02-16T03:45:40.831Z,1021.52
2019-02-16T03:46:40.820Z,1021.51
2019-02-16T03:47:40.807Z,1021.43
2019-02-16T03:48:40.802Z,1021.42
2019-02-16T03:49:40.793Z,1021.39
2019-02-16T03:50:40.787Z,1021.31
2019-02-16T03:51:40.778Z,1021.41
2019-02-16T03:52:40.766Z,1021.43
2019-02-16T03:53:40.758Z,1021.36
2019-02-16T03:54:40.751Z,1021.40
2019-02-16T03:55:40.741Z,1021.33
2019-02-16T03:56:40.730Z,1021.31
2019-02-16T03:57:40.723Z,1021.38
2019-02-16T03:58:40.707Z,1021.34
2019-02-16T03:59:40.697Z,1021.31
2019-02-16T04:00:40.688Z,1021.29
2019-02-16T04:01:40.684Z,1021.34
2019-02-16T04:02:40.675Z,1021.34
2019-02-16T04:03:40.666Z,1021.26
2019-02-16T04:04:40.658Z,1021.26
2019-02-16T04:05:40.650Z,1021.31
2019-02-16T04:06:40.635Z,1021.29
2019-02-16T04:07:40.628Z,1021.33
2019-02-16T04:08:40.623Z,1021.30
2019-02-16T04:09:40.613Z,1021.37
2019-02-16T04:10:40.613Z,1021.26
2019-02-16T04:11:40.590Z,1021.33
2019-02-16T04:12:40.577Z,1021.37
2019-02-16T04:13:40.569Z,1021.29
2019-02-16T04:14:40.564Z,1021.25
2019-02-16T04:15:40.555Z,1021.32
2019-02-16T04:16:40.534Z,1021.32
2019-02-16T04:17:40.527Z,1021.29
2019-02-16T04:18:40.513Z,1021.29
2019-02-16T04:19:40.502Z,1021.28
2019-02-16T04:20:40.506Z,1021.30
2019-02-16T04:21:40.487Z,1021.21
2019-02-16T04:22:40.484Z,1021.21
2019-02-16T04:23:40.473Z,1021.29
2019-02-16T04:24:40.459Z,1021.22
2019-02-16T04:25:40.451Z,1021.16
2019-02-16T04:26:40.681Z,1021.21
2019-02-16T04:27:40.441Z,1021.21
2019-02-16T04:28:40.425Z,1021.18
2019-02-16T04:29:40.415Z,1021.15
2019-02-16T04:30:40.402Z,1021.12
2019-02-16T04:31:40.392Z,1021.21
2019-02-16T04:32:40.385Z,1021.14
2019-02-16T04:33:40.377Z,1021.13
2019-02-16T04:34:40.371Z,1021.17
2019-02-16T04:35:40.367Z,1021.17
2019-02-16T04:36:40.350Z,1021.15
2019-02-16T04:37:40.342Z,1021.10
2019-02-16T04:38:40.332Z,1021.14
2019-02-16T04:39:40.322Z,1021.19
2019-02-16T04:40:40.313Z,1021.12
2019-02-16T04:41:40.308Z,1021.16
2019-02-16T04:42:40.289Z,1021.13
2019-02-16T04:43:40.280Z,1021.18
2019-02-16T04:44:40.275Z,1021.16
2019-02-16T04:45:40.268Z,1021.21
2019-02-16T04:46:40.261Z,1021.27
2019-02-16T04:47:40.251Z,1021.27
2019-02-16T04:48:40.244Z,1021.19
2019-02-16T04:49:40.233Z,1021.16
2019-02-16T04:50:40.220Z,1021.23
2019-02-16T04:51:40.209Z,1021.25
2019-02-16T04:52:40.205Z,1021.20
2019-02-16T04:53:40.189Z,1021.21
2019-02-16T04:54:40.489Z,1021.25
2019-02-16T04:55:40.175Z,1021.22
2019-02-16T04:56:40.161Z,1021.25
2019-02-16T04:57:40.150Z,1021.19
2019-02-16T04:58:40.149Z,1021.17
2019-02-16T04:59:40.135Z,1021.14
2019-02-16T05:00:40.130Z,1021.15
2019-02-16T05:01:40.126Z,1021.12
2019-02-16T05:02:40.106Z,1021.13
2019-02-16T05:03:40.097Z,1021.18
2019-02-16T05:04:40.090Z,1021.08
2019-02-16T05:05:40.080Z,1021.09
2019-02-16T05:06:40.077Z,1021.11
2019-02-16T05:07:40.063Z,1021.13
2019-02-16T05:08:40.054Z,1021.15
2019-02-16T05:09:40.044Z,1021.17
2019-02-16T05:10:40.029Z,1021.16
2019-02-16T05:11:40.033Z,1021.20
2019-02-16T05:12:40.016Z,1021.17
2019-02-16T05:13:40.008Z,1021.14
2019-02-16T05:14:40.011Z,1021.14
2019-02-16T05:15:39.982Z,1021.09
2019-02-16T05:16:39.976Z,1021.09
2019-02-16T05:17:39.970Z,1021.06
2019-02-16T05:18:39.962Z,1021.06
2019-02-16T05:19:39.954Z,1021.08
2019-02-16T05:20:39.943Z,1021.07
2019-02-16T05:21:39.936Z,1021.10
2019-02-16T05:22:44.575Z,1021.11
2019-02-16T05:23:39.911Z,1021.06
2019-02-16T05:24:39.897Z,1021.07
2019-02-16T05:25:39.888Z,1021.10
2019-02-16T05:26:39.885Z,1021.16
2019-02-16T05:27:39.875Z,1021.19
2019-02-16T05:28:39.860Z,1021.16
2019-02-16T05:29:39.853Z,1021.23
2019-02-16T05:30:39.847Z,1021.24
2019-02-16T05:31:39.838Z,1021.27
2019-02-16T05:32:39.829Z,1021.25
2019-02-16T05:33:39.821Z,1021.21
2019-02-16T05:34:39.808Z,1021.23
2019-02-16T05:35:39.797Z,1021.18
2019-02-16T05:36:39.785Z,1021.23
2019-02-16T05:37:39.776Z,1021.21
2019-02-16T05:38:39.775Z,1021.23
2019-02-16T05:39:39.761Z,1021.26
2019-02-16T05:40:39.753Z,1021.24
2019-02-16T05:41:39.746Z,1021.20
2019-02-16T05:42:39.739Z,1021.13
2019-02-16T05:43:39.723Z,1021.17
2019-02-16T05:44:39.715Z,1021.17
2019-02-16T05:45:39.719Z,1021.13
2019-02-16T05:46:39.693Z,1021.14
2019-02-16T05:47:39.687Z,1021.14
2019-02-16T05:48:39.671Z,1021.09
2019-02-16T05:49:39.661Z,1021.19
2019-02-16T05:50:39.657Z,1021.21
2019-02-16T05:51:39.648Z,1021.18
2019-02-16T05:52:39.637Z,1021.18
2019-02-16T05:53:39.629Z,1021.26
2019-02-16T05:54:39.614Z,1021.21
2019-02-16T05:55:39.606Z,1021.25
2019-02-16T05:56:39.602Z,1021.21
2019-02-16T05:57:39.589Z,1021.17
2019-02-16T05:58:39.583Z,1021.20
2019-02-16T05:59:39.574Z,1021.13
2019-02-16T06:00:39.559Z,1021.12
2019-02-16T06:01:39.550Z,1021.13
2019-02-16T06:02:39.545Z,1021.12
2019-02-16T06:03:39.538Z,1021.12
2019-02-16T06:04:39.524Z,1021.12
2019-02-16T06:05:40.943Z,1021.16
2019-02-16T06:06:39.503Z,1021.12
2019-02-16T06:07:39.490Z,1021.07
2019-02-16T06:08:39.480Z,1021.15
2019-02-16T06:09:39.470Z,1021.13
2019-02-16T06:10:39.466Z,1021.12
2019-02-16T06:11:39.457Z,1021.10
2019-02-16T06:12:39.450Z,1021.20
2019-02-16T06:13:39.442Z,1021.17
2019-02-16T06:14:39.430Z,1021.12
2019-02-16T06:15:39.413Z,1021.14
2019-02-16T06:16:39.416Z,1021.14
2019-02-16T06:17:39.402Z,1021.17
2019-02-16T06:18:39.387Z,1021.11
2019-02-16T06:19:39.376Z,1021.16
2019-02-16T06:20:39.363Z,1021.17
2019-02-16T06:21:39.357Z,1021.22
2019-02-16T06:22:39.350Z,1021.20
2019-02-16T06:23:39.340Z,1021.15
2019-02-16T06:24:39.330Z,1021.24
2019-02-16T06:25:39.337Z,1021.18
2019-02-16T06:26:39.310Z,1021.15
2019-02-16T06:27:39.295Z,1021.26
2019-02-16T06:28:39.287Z,1021.25
2019-02-16T06:29:39.279Z,1021.25
2019-02-16T06:30:39.276Z,1021.29
2019-02-16T06:31:39.265Z,1021.29
2019-02-16T06:32:39.250Z,1021.34
2019-02-16T06:33:39.240Z,1021.35
2019-02-16T06:34:39.240Z,1021.32
2019-02-16T06:35:39.225Z,1021.29
2019-02-16T06:36:39.213Z,1021.36
2019-02-16T06:37:39.203Z,1021.30
2019-02-16T06:38:39.189Z,1021.35
2019-02-16T06:39:39.179Z,1021.44
2019-02-16T06:40:41.085Z,1021.45
2019-02-16T06:41:39.162Z,1021.45
2019-02-16T06:42:39.157Z,1021.46
2019-02-16T06:43:39.147Z,1021.45
2019-02-16T06:44:39.135Z,1021.43
2019-02-16T06:45:39.125Z,1021.45
2019-02-16T06:46:39.109Z,1021.47
2019-02-16T06:47:39.101Z,1021.51
2019-02-16T06:48:39.103Z,1021.51
2019-02-16T06:49:39.084Z,1021.49
2019-02-16T06:50:39.069Z,1021.55
2019-02-16T06:51:39.059Z,1021.51
2019-02-16T06:52:39.053Z,1021.47
2019-02-16T06:53:39.043Z,1021.47
2019-02-16T06:54:39.038Z,1021.55
2019-02-16T06:55:39.027Z,1021.46
2019-02-16T06:56:39.018Z,1021.54
2019-02-16T06:57:39.008Z,1021.49
2019-02-16T06:58:38.994Z,1021.51
2019-02-16T06:59:38.985Z,1021.47
2019-02-16T07:00:38.973Z,1021.53
2019-02-16T07:01:39.006Z,1021.50
2019-02-16T07:02:38.957Z,1021.57
2019-02-16T07:03:38.946Z,1021.59
2019-02-16T07:04:38.932Z,1021.61
2019-02-16T07:05:38.923Z,1021.57
2019-02-16T07:06:38.976Z,1021.54
2019-02-16T07:07:38.907Z,1021.57
2019-02-16T07:08:38.901Z,1021.49
2019-02-16T07:09:38.890Z,1021.54
2019-02-16T07:10:38.876Z,1021.59
2019-02-16T07:11:38.866Z,1021.62
2019-02-16T07:12:38.856Z,1021.62
2019-02-16T07:13:38.847Z,1021.57
2019-02-16T07:14:38.841Z,1021.63
2019-02-16T07:15:38.831Z,1021.61
2019-02-16T07:16:38.819Z,1021.64
2019-02-16T07:17:38.809Z,1021.63
2019-02-16T07:18:38.799Z,1021.65
2019-02-16T07:19:38.786Z,1021.70
2019-02-16T07:20:38.782Z,1021.70
2019-02-16T07:21:38.770Z,1021.74
2019-02-16T07:22:38.755Z,1021.76
2019-02-16T07:23:38.746Z,1021.71
2019-02-16T07:24:38.739Z,1021.79
2019-02-16T07:25:38.729Z,1021.71
2019-02-16T07:26:38.724Z,1021.72
2019-02-16T07:27:38.712Z,1021.91
2019-02-16T07:28:38.703Z,1022.21
2019-02-16T07:29:38.700Z,1022.32
2019-02-16T07:30:38.680Z,1022.34
2019-02-16T07:31:38.673Z,1022.39
2019-02-16T07:32:38.659Z,1022.38
2019-02-16T07:33:38.651Z,1022.42
2019-02-16T07:34:38.649Z,1022.51
2019-02-16T07:35:38.637Z,1022.47
2019-02-16T07:36:38.625Z,1022.55
2019-02-16T07:37:38.619Z,1022.54
2019-02-16T07:38:38.617Z,1022.63
2019-02-16T07:39:38.605Z,1022.63
2019-02-16T07:40:38.600Z,1022.66
2019-02-16T07:41:38.594Z,1022.75
2019-02-16T07:42:38.584Z,1022.72
2019-02-16T07:43:38.577Z,1022.77
2019-02-16T07:44:38.567Z,1022.75
2019-02-16T07:45:38.561Z,1022.84
2019-02-16T07:46:38.560Z,1022.79
2019-02-16T07:47:38.555Z,1022.84
2019-02-16T07:48:38.553Z,1022.84
2019-02-16T07:49:38.548Z,1022.82
2019-02-16T07:50:38.538Z,1022.86
2019-02-16T07:51:38.532Z,1022.97
2019-02-16T07:52:38.533Z,1022.85
2019-02-16T07:53:38.530Z,1022.91
2019-02-16T07:54:38.521Z,1022.98
2019-02-16T07:55:38.518Z,1022.97
2019-02-16T07:56:38.512Z,1022.96
2019-02-16T07:57:38.508Z,1023.03
2019-02-16T07:58:38.509Z,1023.04
2019-02-16T07:59:38.506Z,1023.05
2019-02-16T08:00:38.503Z,1023.01
2019-02-16T08:01:38.501Z,1022.99
2019-02-16T08:02:38.497Z,1022.98
2019-02-16T08:03:38.489Z,1023.03
2019-02-16T08:04:38.493Z,1023.08
2019-02-16T08:05:38.488Z,1023.07
2019-02-16T08:06:38.490Z,1023.12
2019-02-16T08:07:38.487Z,1023.15
2019-02-16T08:08:38.484Z,1023.22
2019-02-16T08:09:38.480Z,1023.20
2019-02-16T08:10:38.486Z,1023.28
2019-02-16T08:11:38.480Z,1023.24
2019-02-16T08:12:38.477Z,1023.25
2019-02-16T08:13:38.476Z,1023.26
2019-02-16T08:14:38.471Z,1023.25
2019-02-16T08:15:38.470Z,1023.22
2019-02-16T08:16:38.469Z,1023.23
2019-02-16T08:17:38.466Z,1023.23
2019-02-16T08:18:38.473Z,1023.23
2019-02-16T08:19:38.471Z,1023.19
2019-02-16T08:20:38.474Z,1023.21
2019-02-16T08:21:38.474Z,1023.17
2019-02-16T08:22:38.469Z,1023.25
2019-02-16T08:23:40.331Z,1023.22
2019-02-16T08:24:38.807Z,1023.26
2019-02-16T08:25:38.474Z,1023.23
2019-02-16T08:26:38.470Z,1023.29
2019-02-16T08:27:38.469Z,1023.32
2019-02-16T08:28:38.467Z,1023.27
2019-02-16T08:29:38.469Z,1023.25
2019-02-16T08:30:38.481Z,1023.22
2019-02-16T08:31:38.474Z,1023.27
2019-02-16T08:32:38.475Z,1023.28
2019-02-16T08:33:38.478Z,1023.24
2019-02-16T08:34:38.473Z,1023.25
2019-02-16T08:35:38.475Z,1023.25
2019-02-16T08:36:38.479Z,1023.28
2019-02-16T08:37:38.483Z,1023.25
2019-02-16T08:38:38.485Z,1023.27
2019-02-16T08:39:38.492Z,1023.25
2019-02-16T08:40:38.481Z,1023.26
2019-02-16T08:41:38.484Z,1023.24
2019-02-16T08:42:38.492Z,1023.27
2019-02-16T08:43:38.609Z,1023.29
2019-02-16T08:44:38.494Z,1023.30
2019-02-16T08:45:38.493Z,1023.32
2019-02-16T08:46:38.490Z,1023.33
2019-02-16T08:47:38.490Z,1023.34
2019-02-16T08:48:38.493Z,1023.36
2019-02-16T08:49:38.495Z,1023.37
2019-02-16T08:50:38.503Z,1023.35
2019-02-16T08:51:38.503Z,1023.40
2019-02-16T08:52:38.502Z,1023.31
2019-02-16T08:53:38.506Z,1023.30
2019-02-16T08:54:38.501Z,1023.32
2019-02-16T08:55:38.507Z,1022.55
2019-02-16T08:56:38.510Z,1022.59
2019-02-16T08:57:38.513Z,1022.53
2019-02-16T08:58:38.510Z,1022.51
2019-02-16T08:59:38.511Z,1022.51
2019-02-16T09:00:38.517Z,1022.49
2019-02-16T09:01:38.519Z,1022.45
2019-02-16T09:02:38.527Z,1022.48
2019-02-16T09:03:38.526Z,1022.48
2019-02-16T09:04:38.529Z,1022.47
2019-02-16T09:05:38.531Z,1022.45
2019-02-16T09:06:38.530Z,1022.47
2019-02-16T09:07:38.532Z,1022.45
2019-02-16T09:08:38.534Z,1022.41
2019-02-16T09:09:38.535Z,1022.46
2019-02-16T09:10:38.542Z,1022.51
2019-02-16T09:11:38.546Z,1022.49
2019-02-16T09:12:38.543Z,1022.53
2019-02-16T09:13:38.544Z,1022.55
2019-02-16T09:14:38.553Z,1022.51
2019-02-16T09:15:38.554Z,1022.54
2019-02-16T09:16:38.600Z,1022.53
2019-02-16T09:17:38.565Z,1022.52
2019-02-16T09:18:38.563Z,1022.53
2019-02-16T09:19:38.568Z,1022.44
2019-02-16T09:20:38.572Z,1022.46
2019-02-16T09:21:38.574Z,1022.44
2019-02-16T09:22:38.582Z,1022.44
2019-02-16T09:23:38.585Z,1022.43
2019-02-16T09:24:38.588Z,1022.45
2019-02-16T09:25:38.595Z,1022.50
2019-02-16T09:26:38.590Z,1022.52
2019-02-16T09:27:38.595Z,1022.50
2019-02-16T09:28:38.607Z,1022.52
2019-02-16T09:29:38.610Z,1022.48
2019-02-16T09:30:38.608Z,1022.51
2019-02-16T09:31:38.612Z,1022.52
2019-02-16T09:32:38.621Z,1022.52
2019-02-16T09:33:38.630Z,1022.56
2019-02-16T09:34:38.636Z,1022.57
2019-02-16T09:35:38.643Z,1022.55
2019-02-16T09:36:38.646Z,1022.54
2019-02-16T09:37:38.654Z,1022.57
2019-02-16T09:38:38.654Z,1022.62
2019-02-16T09:39:38.658Z,1022.65
2019-02-16T09:40:38.662Z,1022.62
2019-02-16T09:41:38.665Z,1022.62
2019-02-16T09:42:38.680Z,1022.58
2019-02-16T09:43:38.682Z,1022.61
2019-02-16T09:44:38.681Z,1022.59
2019-02-16T09:45:38.689Z,1022.60
2019-02-16T09:46:38.707Z,1022.60
2019-02-16T09:47:38.705Z,1022.62
2019-02-16T09:48:38.713Z,1022.64
2019-02-16T09:49:38.719Z,1022.61
2019-02-16T09:50:38.722Z,1022.65
2019-02-16T09:51:38.726Z,1022.62
2019-02-16T09:52:38.732Z,1022.66
2019-02-16T09:53:38.740Z,1022.72
2019-02-16T09:54:38.748Z,1022.73
2019-02-16T09:55:38.756Z,1022.73
2019-02-16T09:56:38.764Z,1022.78
2019-02-16T09:57:38.766Z,1022.86
2019-02-16T09:58:38.770Z,1022.81
2019-02-16T09:59:38.774Z,1022.68
2019-02-16T10:00:38.785Z,1022.70
2019-02-16T10:01:38.793Z,1022.68
2019-02-16T10:02:38.795Z,1022.68
2019-02-16T10:03:38.801Z,1022.73
2019-02-16T10:04:38.811Z,1022.69
2019-02-16T10:05:38.816Z,1022.73
2019-02-16T10:06:38.828Z,1022.68
2019-02-16T10:07:38.834Z,1022.75
2019-02-16T10:08:38.842Z,1022.69
2019-02-16T10:09:38.848Z,1022.76
2019-02-16T10:10:38.853Z,1022.74
2019-02-16T10:11:38.855Z,1022.76
2019-02-16T10:12:38.859Z,1022.81
2019-02-16T10:13:38.868Z,1022.78
2019-02-16T10:14:38.878Z,1022.77
2019-02-16T10:15:38.886Z,1022.77
2019-02-16T10:16:38.888Z,1022.80
2019-02-16T10:17:38.894Z,1022.79
2019-02-16T10:18:38.906Z,1022.77
2019-02-16T10:19:38.913Z,1022.84
2019-02-16T10:20:40.424Z,1022.86
2019-02-16T10:21:38.930Z,1022.80
2019-02-16T10:22:40.085Z,1022.88
2019-02-16T10:23:38.938Z,1022.90
2019-02-16T10:24:38.949Z,1022.89
2019-02-16T10:25:38.955Z,1022.89
2019-02-16T10:26:38.966Z,1022.90
2019-02-16T10:27:38.977Z,1022.93
2019-02-16T10:28:38.979Z,1022.99
2019-02-16T10:29:38.987Z,1022.97
2019-02-16T10:30:38.995Z,1022.97
2019-02-16T10:31:39.001Z,1022.93
2019-02-16T10:32:39.012Z,1022.97
2019-02-16T10:33:39.017Z,1022.96
2019-02-16T10:34:39.022Z,1022.95
2019-02-16T10:35:39.033Z,1022.97
2019-02-16T10:36:39.039Z,1022.95
2019-02-16T10:37:39.046Z,1022.91
2019-02-16T10:38:39.061Z,1022.92
2019-02-16T10:39:39.066Z,1022.94
2019-02-16T10:40:39.072Z,1022.96
2019-02-16T10:41:39.086Z,1022.94
2019-02-16T10:42:39.086Z,1022.95
2019-02-16T10:43:39.092Z,1022.92
2019-02-16T10:44:39.098Z,1022.96
2019-02-16T10:45:39.103Z,1022.98
2019-02-16T10:46:39.116Z,1022.95
2019-02-16T10:47:39.123Z,1022.94
2019-02-16T10:48:39.126Z,1022.95
2019-02-16T10:49:39.149Z,1022.92
2019-02-16T10:50:39.147Z,1022.90
2019-02-16T10:51:39.155Z,1022.87
2019-02-16T10:52:39.165Z,1022.94
2019-02-16T10:53:39.173Z,1022.92
2019-02-16T10:54:39.178Z,1022.90
2019-02-16T10:55:39.184Z,1022.90
2019-02-16T10:56:39.190Z,1022.91
2019-02-16T10:57:39.197Z,1022.89
2019-02-16T10:58:39.212Z,1022.84
2019-02-16T10:59:39.222Z,1022.89
2019-02-16T11:00:39.229Z,1022.89
2019-02-16T11:01:39.237Z,1022.84
2019-02-16T11:02:39.243Z,1022.81
2019-02-16T11:03:39.250Z,1022.77
2019-02-16T11:04:39.272Z,1022.78
2019-02-16T11:05:39.271Z,1022.77
2019-02-16T11:06:39.274Z,1022.80
2019-02-16T11:07:39.280Z,1022.78
2019-02-16T11:08:39.286Z,1022.81
2019-02-16T11:09:39.298Z,1022.72
2019-02-16T11:10:39.306Z,1022.67
2019-02-16T11:11:39.313Z,1022.64
2019-02-16T11:12:39.323Z,1022.70
2019-02-16T11:13:39.332Z,1022.72
2019-02-16T11:14:39.333Z,1022.71
2019-02-16T11:15:39.342Z,1022.62
2019-02-16T11:16:39.352Z,1022.63
2019-02-16T11:17:39.359Z,1022.63
2019-02-16T11:18:39.372Z,1022.59
2019-02-16T11:19:39.379Z,1022.59
2019-02-16T11:20:39.382Z,1022.53
2019-02-16T11:21:39.387Z,1022.54
2019-02-16T11:22:39.401Z,1022.55
2019-02-16T11:23:39.407Z,1022.54
2019-02-16T11:24:39.413Z,1022.52
2019-02-16T11:25:39.420Z,1022.50
2019-02-16T11:26:39.421Z,1022.49
2019-02-16T11:27:40.414Z,1022.48
2019-02-16T11:28:39.437Z,1022.51
2019-02-16T11:29:39.444Z,1022.46
2019-02-16T11:30:39.455Z,1022.44
2019-02-16T11:31:39.461Z,1022.50
2019-02-16T11:32:39.472Z,1022.48
2019-02-16T11:33:39.482Z,1022.53
2019-02-16T11:34:39.481Z,1022.47
2019-02-16T11:35:40.397Z,1022.50
2019-02-16T11:36:39.500Z,1022.49
2019-02-16T11:37:39.506Z,1022.47
2019-02-16T11:38:39.510Z,1022.43
2019-02-16T11:39:39.514Z,1022.44
2019-02-16T11:40:39.518Z,1022.40
2019-02-16T11:41:39.531Z,1022.43
2019-02-16T11:42:39.536Z,1022.37
2019-02-16T11:43:41.062Z,1022.34
2019-02-16T11:44:39.550Z,1022.32
2019-02-16T11:45:39.555Z,1022.25
2019-02-16T11:46:39.556Z,1022.23
2019-02-16T11:47:39.562Z,1022.20
2019-02-16T11:48:39.569Z,1022.18
2019-02-16T11:49:39.575Z,1022.19
2019-02-16T11:50:39.584Z,1022.15
2019-02-16T11:51:39.587Z,1022.11
2019-02-16T11:52:39.588Z,1022.09
2019-02-16T11:53:39.593Z,1022.08
2019-02-16T11:54:45.395Z,1022.05
2019-02-16T11:55:39.604Z,1022.06
2019-02-16T11:56:39.607Z,1022.03
2019-02-16T11:57:39.608Z,1022.02
2019-02-16T11:58:39.610Z,1021.97
2019-02-16T11:59:39.612Z,1022.02
2019-02-16T12:00:40.256Z,1021.98
2019-02-16T12:01:40.768Z,1021.92
2019-02-16T12:02:40.135Z,1021.94
2019-02-16T12:03:39.624Z,1021.91
2019-02-16T12:04:39.624Z,1021.93
2019-02-16T12:05:39.626Z,1021.86